Rogers, MN (55374)

6:45 AM CST on March 02, 2015 (GMT -0600)
North Ridge | Change Station
CLOSE
Current Station
Personal Weather Station
Location: Rogers, MN
Elevation: 940 ft
Nearby Weather Stations
Active Advisory: Winter Weather Advisory

Elev 940 ft 45.21 °N, 93.57 °W | Updated 35 seconds ago

Clear
Clear
4.5 °F
Feels Like 4 °F
N
0.0
Wind Variable Wind from WNW
Gusts 0.0 mph

Today
High -- | Low -- °F
--% Chance of Precip.
Yesterday
High -- | Low -- °F
Precip. -- in
6:50 AM 6:02 PM
Waxing Gibbous, 91% visible
Pressure 30.46 in
Visibility 10.0 miles
Clouds Clear
Windchill 4 °F
Dew Point -0 °F
Humidity 80%
Rainfall 0.00 in
Snow Depth Not available.
UV 0.0 out of 12
Pollen .50 out of 12
Air Quality Not available.
Flu Activity Not available.
METAR KCFE 021205Z AUTO 00000KT 10SM CLR M15/M17 A3046 RMK AO2

More Conditions Fewer Conditions

Pressure 30.46 in
Visibility 10.0 miles
Clouds Clear
Windchill 4 °F
Dew Point -0 °F
Humidity 80%
Rainfall 0.00 in
Snow Depth Not available.
UV 0.0 out of 12
Pollen .50 out of 12
Air Quality Not available.
Flu Activity Not available.
METAR KCFE 021205Z AUTO 00000KT 10SM CLR M15/M17 A3046 RMK AO2

More Conditions Fewer Conditions

10-Day Weather Forecast

Almanac

Astronomy

Mar. 02, 2015 Rise Set
Actual Time
Civil Twilight
Nautical Twilight
Astronomical Twilight
Moon
Length of Visible Light
Length of Day
Tomorrow will be .
, % of the Moon is Illuminated

Today's Extremes

State Highs State Lows

Community

WunderPhotos

Upload Photos

1,801,772 photos uploaded!

WunderBlogs® & News

Nearby

Air Quality

  Air Quality AQ Index Pollutant
Not available.

Snow Depth

Station Depth Elevation

Earthquake Activity

City Distance Mag. Time & Date
Minimum magnitude displayed is 2.5.

Coastal Water Temperatures

Place Temperature

Nearby Weather Stations

Winter Weather Advisory
Statement as of 6:05 AM CST on March 02, 2015

... Winter Weather Advisory remains in effect from 3 am to 9 PM
CST Tuesday...

* timing... snow will develop late tonight and taper off Tuesday
afternoon... as winds increase behind a cold front. The strong
winds will produce areas of blowing snow through Tuesday
evening.

* Snow accumulations... 2 to 5 inches.

* Winds/visibility... wind gusts around 35 mph will produce areas
of blowing snow and visibilities less than one mile in open
areas.

* Impacts... travel will be difficult. The morning rush may be
significantly impacted by snow and the afternoon rush may be
impacted with blowing snow.

Precautionary/preparedness actions...

A Winter Weather Advisory for snow and blowing snow means that
visibilities will be limited due to a combination of falling and
blowing snow. Use caution when traveling... especially in open
areas.



Borghoff